createdAt,value
2023-03-04T00:02:28.098Z,23.70
2023-03-04T00:04:55.192Z,23.70
2023-03-04T00:07:22.301Z,23.62
2023-03-04T00:09:49.409Z,23.62
2023-03-04T00:12:16.546Z,23.56
2023-03-04T00:14:43.663Z,23.60
2023-03-04T00:17:11.094Z,23.57
2023-03-04T00:19:39.682Z,23.61
2023-03-04T00:22:06.787Z,23.66
2023-03-04T00:24:33.970Z,23.66
2023-03-04T00:27:01.035Z,23.71
2023-03-04T00:29:28.133Z,23.69
2023-03-04T00:31:55.349Z,23.69
2023-03-04T00:34:22.590Z,23.69
2023-03-04T00:36:51.197Z,23.67
2023-03-04T00:39:18.307Z,23.66
2023-03-04T00:41:45.858Z,23.64
2023-03-04T00:44:12.948Z,23.61
2023-03-04T00:46:40.067Z,23.61
2023-03-04T00:49:07.147Z,23.59
2023-03-04T00:51:34.471Z,23.59
2023-03-04T00:54:03.079Z,23.58
2023-03-04T00:56:30.160Z,23.51
2023-03-04T00:58:57.242Z,23.50
2023-03-04T01:01:24.436Z,23.47
2023-03-04T01:03:51.615Z,23.49
2023-03-04T01:06:18.998Z,23.49
2023-03-04T01:08:46.233Z,23.49
2023-03-04T01:11:14.845Z,23.52
2023-03-04T01:13:41.953Z,23.55
2023-03-04T01:16:09.053Z,23.57
2023-03-04T01:18:36.493Z,23.61
2023-03-04T01:21:03.957Z,23.62
2023-03-04T01:23:31.159Z,23.59
2023-03-04T01:25:58.244Z,23.58
2023-03-04T01:28:26.714Z,23.59
2023-03-04T01:30:53.939Z,23.53
2023-03-04T01:33:21.275Z,23.52
2023-03-04T01:35:48.443Z,23.53
2023-03-04T01:38:15.566Z,23.49
2023-03-04T01:40:42.653Z,23.49
2023-03-04T01:43:15.930Z,23.48
2023-03-04T01:45:44.412Z,23.41
2023-03-04T01:48:15.772Z,23.39
2023-03-04T01:50:42.922Z,23.36
2023-03-04T01:53:17.983Z,23.39
2023-03-04T01:55:45.527Z,23.37
2023-03-04T01:58:13.103Z,23.37
2023-03-04T02:03:32.948Z,23.44
2023-03-04T02:06:00.158Z,23.48
2023-03-04T02:08:27.278Z,23.47
2023-03-04T02:10:54.838Z,23.47
2023-03-04T02:13:22.371Z,23.46
2023-03-04T02:15:49.627Z,23.48
2023-03-04T02:18:18.950Z,23.45
2023-03-04T02:20:56.277Z,23.37
2023-03-04T02:23:27.946Z,23.45
2023-03-04T02:26:10.443Z,23.42
2023-03-04T02:28:37.605Z,23.44
2023-03-04T02:31:05.016Z,23.41
2023-03-04T02:33:32.883Z,23.43
2023-03-04T02:36:00.013Z,23.36
2023-03-04T02:38:27.165Z,23.34
2023-03-04T02:40:55.879Z,23.30
2023-03-04T02:43:24.379Z,23.26
2023-03-04T02:45:51.539Z,23.22
2023-03-04T02:48:21.018Z,23.16
2023-03-04T02:50:50.824Z,23.26
2023-03-04T02:53:18.833Z,23.33
2023-03-04T02:55:46.039Z,23.35
2023-03-04T02:58:13.860Z,23.36
2023-03-04T03:00:42.752Z,23.33
2023-03-04T03:03:09.915Z,23.39
2023-03-04T03:05:37.744Z,23.37
2023-03-04T03:08:05.849Z,23.36
2023-03-04T03:10:33.426Z,23.31
2023-03-04T03:13:00.695Z,23.34
2023-03-04T03:15:27.820Z,23.31
2023-03-04T03:17:56.995Z,23.31
2023-03-04T03:20:24.111Z,23.31
2023-03-04T03:22:51.261Z,23.29
2023-03-04T03:25:18.635Z,23.28
2023-03-04T03:27:45.766Z,23.23
2023-03-04T03:30:14.702Z,23.20
2023-03-04T03:32:41.816Z,23.20
2023-03-04T03:35:10.814Z,23.13
2023-03-04T03:37:38.435Z,23.18
2023-03-04T03:40:06.590Z,23.21
2023-03-04T03:42:33.697Z,23.22
2023-03-04T03:45:00.781Z,23.29
2023-03-04T03:47:27.886Z,23.22
2023-03-04T03:49:55.003Z,23.51
2023-03-04T03:52:23.456Z,23.82
2023-03-04T03:54:50.548Z,23.88
2023-03-04T03:57:17.653Z,24.17
2023-03-04T03:59:44.731Z,24.30
2023-03-04T04:02:11.930Z,24.32
2023-03-04T04:04:39.085Z,24.32
2023-03-04T04:07:06.168Z,24.28
2023-03-04T04:09:34.713Z,24.01
2023-03-04T04:12:01.982Z,24.22
2023-03-04T04:14:29.070Z,24.14
2023-03-04T04:16:56.158Z,24.19
2023-03-04T04:19:23.329Z,24.18
2023-03-04T04:21:50.454Z,24.14
2023-03-04T04:24:19.473Z,24.15
2023-03-04T04:26:47.962Z,23.88
2023-03-04T04:29:15.280Z,23.92
2023-03-04T04:31:42.398Z,23.95
2023-03-04T04:34:09.699Z,24.04
2023-03-04T04:36:37.151Z,24.01
2023-03-04T04:39:04.686Z,23.94
2023-03-04T04:41:36.082Z,23.82
2023-03-04T04:44:05.008Z,23.74
2023-03-04T04:46:32.374Z,23.81
2023-03-04T04:48:59.975Z,23.78
2023-03-04T04:51:27.654Z,23.74
2023-03-04T04:53:55.022Z,23.66
2023-03-04T04:56:24.037Z,23.70
2023-03-04T04:58:51.118Z,23.68
2023-03-04T05:01:19.640Z,23.59
2023-03-04T05:03:46.883Z,23.61
2023-03-04T05:06:13.973Z,23.56
2023-03-04T05:08:41.119Z,23.50
2023-03-04T05:11:08.527Z,23.53
2023-03-04T05:13:35.765Z,23.56
2023-03-04T05:16:03.256Z,23.50
2023-03-04T05:18:32.054Z,23.49
2023-03-04T05:21:00.689Z,23.52
2023-03-04T05:23:30.681Z,23.52
2023-03-04T05:25:57.912Z,23.49
2023-03-04T05:28:25.021Z,23.49
2023-03-04T05:30:52.214Z,23.49
2023-03-04T05:33:20.257Z,23.62
2023-03-04T05:35:49.412Z,23.57
2023-03-04T05:38:19.070Z,23.55
2023-03-04T05:40:47.203Z,23.47
2023-03-04T05:43:14.843Z,23.56
2023-03-04T05:45:42.242Z,23.55
2023-03-04T05:48:09.735Z,23.48
2023-03-04T05:50:36.834Z,23.51
2023-03-04T05:53:05.530Z,23.44
2023-03-04T05:55:32.788Z,23.39
2023-03-04T05:58:00.015Z,23.36
2023-03-04T06:00:27.481Z,23.34
2023-03-04T06:02:54.609Z,23.36
2023-03-04T06:05:23.025Z,23.36
2023-03-04T06:07:50.132Z,23.31
2023-03-04T06:10:19.421Z,23.34
2023-03-04T06:12:46.542Z,23.48
2023-03-04T06:15:13.934Z,23.49
2023-03-04T06:17:42.379Z,23.47
2023-03-04T06:20:11.672Z,23.39
2023-03-04T06:22:38.896Z,23.47
2023-03-04T06:25:07.243Z,23.44
2023-03-04T06:27:35.852Z,23.42
2023-03-04T06:30:03.603Z,23.32
2023-03-04T06:32:30.886Z,23.35
2023-03-04T06:34:58.019Z,23.36
2023-03-04T06:37:25.144Z,23.38
2023-03-04T06:39:52.247Z,23.36
2023-03-04T06:42:19.390Z,23.34
2023-03-04T06:44:49.053Z,23.26
2023-03-04T06:47:16.240Z,23.27
2023-03-04T06:49:43.319Z,23.27
2023-03-04T06:52:10.433Z,23.15
2023-03-04T06:54:38.000Z,23.25
2023-03-04T06:57:05.765Z,23.23
2023-03-04T06:59:32.848Z,23.25
2023-03-04T07:02:01.554Z,23.22
2023-03-04T07:04:28.849Z,23.24
2023-03-04T07:06:55.933Z,23.33
2023-03-04T07:09:23.078Z,23.54
2023-03-04T07:11:50.170Z,23.56
2023-03-04T07:14:17.255Z,23.55
2023-03-04T07:16:44.408Z,23.59
2023-03-04T07:19:12.869Z,23.79
2023-03-04T07:21:40.117Z,24.14
2023-03-04T07:24:07.728Z,24.37
2023-03-04T07:26:34.868Z,24.47
2023-03-04T07:29:01.958Z,24.53
2023-03-04T07:31:30.679Z,24.45
2023-03-04T07:33:59.772Z,24.44
2023-03-04T07:36:28.510Z,24.43
2023-03-04T07:38:55.955Z,24.38
2023-03-04T07:41:24.820Z,24.27
2023-03-04T07:43:52.254Z,24.38
2023-03-04T07:46:20.015Z,24.31
2023-03-04T07:48:47.164Z,24.23
2023-03-04T07:51:16.740Z,24.31
2023-03-04T07:53:48.882Z,24.30
2023-03-04T07:56:18.186Z,24.23
2023-03-04T07:58:46.515Z,24.22
2023-03-04T08:01:15.497Z,24.08
2023-03-04T08:03:43.342Z,24.12
2023-03-04T08:06:12.528Z,24.09
2023-03-04T08:08:40.139Z,24.11
2023-03-04T08:11:12.754Z,24.08
2023-03-04T08:13:40.458Z,24.04
2023-03-04T08:16:08.174Z,23.95
2023-03-04T08:18:35.324Z,24.02
2023-03-04T08:21:02.468Z,24.02
2023-03-04T08:23:29.564Z,23.93
2023-03-04T08:25:56.671Z,23.91
2023-03-04T08:28:25.246Z,23.93
2023-03-04T08:30:53.533Z,23.97
2023-03-04T08:33:20.730Z,23.93
2023-03-04T08:35:48.079Z,23.94
2023-03-04T08:38:15.170Z,23.93
2023-03-04T08:40:42.303Z,23.95
2023-03-04T08:43:09.492Z,23.86
2023-03-04T08:45:37.934Z,23.91
2023-03-04T08:48:05.360Z,23.95
2023-03-04T08:50:32.478Z,23.95
2023-03-04T08:52:59.891Z,23.90
2023-03-04T08:55:26.989Z,23.93
2023-03-04T08:57:54.099Z,23.95
2023-03-04T09:00:21.451Z,23.96
2023-03-04T09:02:50.365Z,23.94
2023-03-04T09:05:17.496Z,23.96
2023-03-04T09:07:44.585Z,23.95
2023-03-04T09:10:12.129Z,23.96
2023-03-04T09:12:39.238Z,23.89
2023-03-04T09:15:11.630Z,23.86
2023-03-04T09:17:40.500Z,23.80
2023-03-04T09:20:12.549Z,23.83
2023-03-04T09:22:41.160Z,24.09
2023-03-04T09:25:12.818Z,24.09
2023-03-04T09:27:40.963Z,24.03
2023-03-04T09:30:10.041Z,24.01
2023-03-04T09:32:37.170Z,24.07
2023-03-04T09:35:05.390Z,23.91
2023-03-04T09:37:33.932Z,23.99
2023-03-04T09:40:01.032Z,24.05
2023-03-04T09:42:45.213Z,24.10
2023-03-04T09:45:18.374Z,24.03
2023-03-04T09:47:48.363Z,24.04
2023-03-04T09:50:17.882Z,23.96
2023-03-04T09:53:00.894Z,24.06
2023-03-04T09:55:33.374Z,24.11
2023-03-04T09:58:04.804Z,24.06
2023-03-04T10:00:38.821Z,23.92
2023-03-04T10:03:14.373Z,23.88
2023-03-04T10:05:48.460Z,23.86
2023-03-04T10:08:33.159Z,23.79
2023-03-04T10:11:03.663Z,23.54
2023-03-04T10:13:35.904Z,23.77
2023-03-04T10:16:05.711Z,23.86
2023-03-04T10:18:37.450Z,24.01
2023-03-04T10:21:13.309Z,24.35
2023-03-04T10:23:41.939Z,24.61
2023-03-04T10:26:14.032Z,24.94
2023-03-04T10:28:41.587Z,24.82
2023-03-04T10:31:15.251Z,24.77
2023-03-04T10:33:42.472Z,24.67
2023-03-04T10:36:27.013Z,24.61
2023-03-04T10:38:58.791Z,24.65
2023-03-04T10:41:28.507Z,24.33
2023-03-04T10:44:02.982Z,24.03
2023-03-04T10:46:30.614Z,23.98
2023-03-04T10:48:58.462Z,23.94
2023-03-04T10:51:27.798Z,23.93
2023-03-04T10:54:01.003Z,23.90
2023-03-04T10:56:33.995Z,23.82
2023-03-04T10:59:42.559Z,23.86
2023-03-04T11:02:20.697Z,23.85
2023-03-04T11:04:53.171Z,23.84
2023-03-04T11:07:21.504Z,23.84
2023-03-04T11:09:50.112Z,23.83
2023-03-04T11:12:20.835Z,23.79
2023-03-04T11:14:49.670Z,23.83
2023-03-04T11:17:22.552Z,23.80
2023-03-04T11:19:55.270Z,23.64
2023-03-04T11:22:24.140Z,23.70
2023-03-04T11:24:59.395Z,23.58
2023-03-04T11:27:36.274Z,23.63
2023-03-04T11:30:25.817Z,23.48
2023-03-04T11:33:00.706Z,23.48
2023-03-04T11:35:32.794Z,23.54
2023-03-04T11:38:05.951Z,23.55
2023-03-04T11:40:40.543Z,23.62
2023-03-04T11:43:13.981Z,23.68
2023-03-04T11:45:59.885Z,23.72
2023-03-04T11:48:37.661Z,23.67
2023-03-04T11:51:13.022Z,23.68
2023-03-04T11:53:55.818Z,23.70
2023-03-04T11:56:31.552Z,23.67
2023-03-04T11:59:37.207Z,23.62
2023-03-04T12:02:14.227Z,23.54
2023-03-04T12:05:05.009Z,23.71
2023-03-04T12:07:50.212Z,23.71
2023-03-04T12:10:26.326Z,23.71
2023-03-04T12:13:09.563Z,23.73
2023-03-04T12:15:45.874Z,23.71
2023-03-04T12:18:27.059Z,23.73
2023-03-04T12:21:11.966Z,23.74
2023-03-04T12:24:07.570Z,23.74
2023-03-04T12:26:38.786Z,23.80
2023-03-04T12:29:15.889Z,23.84
2023-03-04T12:31:45.804Z,23.89
2023-03-04T12:34:33.562Z,23.90
2023-03-04T12:37:35.634Z,23.96
2023-03-04T12:40:27.217Z,23.91
2023-03-04T12:43:14.310Z,23.89
2023-03-04T12:45:51.110Z,24.21
2023-03-04T12:48:30.283Z,25.12
2023-03-04T12:51:08.797Z,25.35
2023-03-04T12:53:43.400Z,25.40
2023-03-04T12:56:23.310Z,24.88
2023-03-04T12:58:51.358Z,24.43
2023-03-04T13:01:26.464Z,24.33
2023-03-04T13:04:01.780Z,24.30
2023-03-04T13:06:36.291Z,24.33
2023-03-04T13:09:11.353Z,24.23
2023-03-04T13:12:03.340Z,24.28
2023-03-04T13:14:34.553Z,24.23
2023-03-04T13:17:38.018Z,24.20
2023-03-04T13:20:19.759Z,24.20
2023-03-04T13:22:53.483Z,24.17
2023-03-04T13:25:36.186Z,24.12
2023-03-04T13:28:25.419Z,24.05
2023-03-04T13:31:11.915Z,24.21
2023-03-04T13:33:58.482Z,24.26
2023-03-04T13:36:52.912Z,24.23
2023-03-04T13:39:31.679Z,24.22
2023-03-04T13:41:59.351Z,24.26
2023-03-04T13:45:00.798Z,24.01
2023-03-04T13:47:39.891Z,23.63
2023-03-04T13:50:28.810Z,23.65
2023-03-04T13:53:14.576Z,23.69
2023-03-04T13:55:43.043Z,23.68
2023-03-04T13:58:20.314Z,23.73
2023-03-04T14:00:50.603Z,23.78
2023-03-04T14:03:23.817Z,23.91
2023-03-04T14:06:15.398Z,24.06
2023-03-04T14:08:42.642Z,24.25
2023-03-04T14:11:14.260Z,24.33
2023-03-04T14:13:42.163Z,24.35
2023-03-04T14:16:09.427Z,24.38
2023-03-04T14:18:36.836Z,24.38
2023-03-04T14:21:04.234Z,24.42
2023-03-04T14:23:34.875Z,24.43
2023-03-04T14:26:07.992Z,24.39
2023-03-04T14:28:42.844Z,24.26
2023-03-04T14:31:17.188Z,24.18
2023-03-04T14:33:46.949Z,24.05
2023-03-04T14:36:20.548Z,24.11
2023-03-04T14:38:56.106Z,24.10
2023-03-04T14:41:28.318Z,24.10
2023-03-04T14:44:02.614Z,24.24
2023-03-04T14:46:32.979Z,24.21
2023-03-04T14:49:00.652Z,24.27
2023-03-04T14:51:37.633Z,24.26
2023-03-04T14:54:06.293Z,24.28
2023-03-04T14:56:35.530Z,24.31
2023-03-04T14:59:02.956Z,24.28
2023-03-04T15:01:33.505Z,24.24
2023-03-04T15:04:03.044Z,24.00
2023-03-04T15:06:32.066Z,24.18
2023-03-04T15:09:02.338Z,24.14
2023-03-04T15:11:44.126Z,24.16
2023-03-04T15:14:41.908Z,24.03
2023-03-04T15:17:23.950Z,23.97
2023-03-04T15:20:03.721Z,23.90
2023-03-04T15:22:30.841Z,23.88
2023-03-04T15:24:58.058Z,23.98
2023-03-04T15:27:30.226Z,24.01
2023-03-04T15:29:59.628Z,24.08
2023-03-04T15:32:27.546Z,24.10
2023-03-04T15:34:55.148Z,24.15
2023-03-04T15:37:25.545Z,24.11
2023-03-04T15:39:54.672Z,24.11
2023-03-04T15:42:21.813Z,24.12
2023-03-04T15:44:50.344Z,24.13
2023-03-04T15:47:17.468Z,24.12
2023-03-04T15:49:44.820Z,24.14
2023-03-04T15:52:16.798Z,24.11
2023-03-04T15:54:44.355Z,24.15
2023-03-04T15:57:20.312Z,24.11
2023-03-04T15:59:47.466Z,24.11
2023-03-04T16:02:20.281Z,24.07
2023-03-04T16:04:47.430Z,23.96
2023-03-04T16:07:17.899Z,23.94
2023-03-04T16:09:45.420Z,23.48
2023-03-04T16:12:13.003Z,24.04
2023-03-04T16:14:40.153Z,24.08
2023-03-04T16:17:07.315Z,24.05
2023-03-04T16:19:35.887Z,23.98
2023-03-04T16:22:03.130Z,23.90
2023-03-04T16:24:34.169Z,23.81
2023-03-04T16:27:01.320Z,23.82
2023-03-04T16:29:28.406Z,23.75
2023-03-04T16:31:55.582Z,23.84
2023-03-04T16:34:22.678Z,23.79
2023-03-04T16:36:51.172Z,23.76
2023-03-04T16:39:21.714Z,23.70
2023-03-04T16:41:49.240Z,23.67
2023-03-04T16:44:16.335Z,23.61
2023-03-04T16:46:43.486Z,23.63
2023-03-04T16:49:10.618Z,23.64
2023-03-04T16:51:41.520Z,23.63
2023-03-04T16:54:14.858Z,23.58
2023-03-04T16:56:42.194Z,23.63
2023-03-04T16:59:14.756Z,23.66
2023-03-04T17:01:42.686Z,23.63
2023-03-04T17:04:10.103Z,23.75
2023-03-04T17:06:37.387Z,23.70
2023-03-04T17:09:05.012Z,23.79
2023-03-04T17:11:33.839Z,23.75
2023-03-04T17:14:01.095Z,23.68
2023-03-04T17:16:28.501Z,23.64
2023-03-04T17:18:56.111Z,23.49
2023-03-04T17:21:26.141Z,23.53
2023-03-04T17:23:54.240Z,23.62
2023-03-04T17:26:21.358Z,23.55
2023-03-04T17:28:51.055Z,23.55
2023-03-04T17:31:20.731Z,23.57
2023-03-04T17:33:48.394Z,23.53
2023-03-04T17:36:17.895Z,23.49
2023-03-04T17:38:45.723Z,23.53
2023-03-04T17:41:14.780Z,23.53
2023-03-04T17:43:43.150Z,23.45
2023-03-04T17:46:13.767Z,23.49
2023-03-04T17:48:41.545Z,23.57
2023-03-04T17:51:09.346Z,23.54
2023-03-04T17:53:37.392Z,23.62
2023-03-04T17:56:06.645Z,23.63
2023-03-04T17:58:35.926Z,23.55
2023-03-04T18:01:05.977Z,23.59
2023-03-04T18:03:34.557Z,23.55
2023-03-04T18:06:01.665Z,23.53
2023-03-04T18:08:28.863Z,23.45
2023-03-04T18:10:55.976Z,23.65
2023-03-04T18:13:23.174Z,23.74
2023-03-04T18:15:50.327Z,23.96
2023-03-04T18:18:17.410Z,24.08
2023-03-04T18:20:45.929Z,24.07
2023-03-04T18:23:13.176Z,24.02
2023-03-04T18:25:40.516Z,24.03
2023-03-04T18:28:07.658Z,24.03
2023-03-04T18:30:34.755Z,23.98
2023-03-04T18:33:02.005Z,24.02
2023-03-04T18:35:29.332Z,24.06
2023-03-04T18:37:57.800Z,24.09
2023-03-04T18:40:24.872Z,24.05
2023-03-04T18:42:52.118Z,23.91
2023-03-04T18:45:19.405Z,23.96
2023-03-04T18:47:49.644Z,23.90
2023-03-04T18:50:17.961Z,24.00
2023-03-04T18:52:45.150Z,23.98
2023-03-04T18:55:13.663Z,23.92
2023-03-04T18:57:43.358Z,23.94
2023-03-04T19:00:11.703Z,23.91
2023-03-04T19:02:42.414Z,23.81
2023-03-04T19:05:13.899Z,23.86
2023-03-04T19:07:41.062Z,23.77
2023-03-04T19:10:09.141Z,23.78
2023-03-04T19:12:37.614Z,23.76
2023-03-04T19:15:05.460Z,23.74
2023-03-04T19:17:32.647Z,23.70
2023-03-04T19:19:59.921Z,23.78
2023-03-04T19:22:27.009Z,23.80
2023-03-04T19:24:54.105Z,23.80
2023-03-04T19:27:21.247Z,23.73
2023-03-04T19:29:49.669Z,23.65
2023-03-04T19:32:17.274Z,23.65
2023-03-04T19:34:45.183Z,23.65
2023-03-04T19:37:12.788Z,23.62
2023-03-04T19:39:41.855Z,23.43
2023-03-04T19:42:09.626Z,23.56
2023-03-04T19:44:37.049Z,23.58
2023-03-04T19:47:05.817Z,23.55
2023-03-04T19:49:33.794Z,23.54
2023-03-04T19:52:01.234Z,23.49
2023-03-04T19:54:28.714Z,23.58
2023-03-04T19:56:57.646Z,23.49
2023-03-04T19:59:25.106Z,23.57
2023-03-04T20:01:52.253Z,23.55
2023-03-04T20:04:21.191Z,23.50
2023-03-04T20:06:50.706Z,23.56
2023-03-04T20:09:19.077Z,23.54
2023-03-04T20:11:57.610Z,23.59
2023-03-04T20:14:26.038Z,23.60
2023-03-04T20:16:53.279Z,23.49
2023-03-04T20:19:21.732Z,23.49
2023-03-04T20:21:48.852Z,23.52
2023-03-04T20:24:15.979Z,23.51
2023-03-04T20:26:43.133Z,23.47
2023-03-04T20:29:10.214Z,23.43
2023-03-04T20:31:38.755Z,23.49
2023-03-04T20:34:06.961Z,23.48
2023-03-04T20:36:35.693Z,23.44
2023-03-04T20:39:08.266Z,23.35
2023-03-04T20:41:42.461Z,23.40
2023-03-04T20:44:09.557Z,23.48
2023-03-04T20:46:38.348Z,23.46
2023-03-04T20:49:07.215Z,23.55
2023-03-04T20:51:36.130Z,23.58
2023-03-04T20:54:04.144Z,23.62
2023-03-04T20:56:31.653Z,23.65
2023-03-04T20:59:01.628Z,23.70
2023-03-04T21:01:28.767Z,23.67
2023-03-04T21:03:55.947Z,23.63
2023-03-04T21:06:23.124Z,23.59
2023-03-04T21:08:52.228Z,23.57
2023-03-04T21:11:19.426Z,23.52
2023-03-04T21:13:49.282Z,23.65
2023-03-04T21:16:17.303Z,23.45
2023-03-04T21:18:44.445Z,23.42
2023-03-04T21:21:12.845Z,23.25
2023-03-04T21:23:39.985Z,23.32
2023-03-04T21:26:08.728Z,23.35
2023-03-04T21:28:36.044Z,23.30
2023-03-04T21:31:03.889Z,23.31
2023-03-04T21:33:34.350Z,23.36
2023-03-04T21:36:01.516Z,23.44
2023-03-04T21:38:28.603Z,23.34
2023-03-04T21:40:56.008Z,23.35
2023-03-04T21:43:24.485Z,23.44
2023-03-04T21:45:55.904Z,23.34
2023-03-04T21:48:23.537Z,23.42
2023-03-04T21:50:50.898Z,23.32
2023-03-04T21:53:17.978Z,23.38
2023-03-04T21:55:45.179Z,23.39
2023-03-04T21:58:12.291Z,23.28
2023-03-04T22:00:40.760Z,23.37
2023-03-04T22:03:07.850Z,23.33
2023-03-04T22:05:39.702Z,23.34
2023-03-04T22:08:06.778Z,23.35
2023-03-04T22:10:37.174Z,23.30
2023-03-04T22:13:04.454Z,23.28
2023-03-04T22:15:31.577Z,23.30
2023-03-04T22:18:00.050Z,23.27
2023-03-04T22:20:27.217Z,23.21
2023-03-04T22:22:54.504Z,23.25
2023-03-04T22:25:21.587Z,23.32
2023-03-04T22:27:48.683Z,23.38
2023-03-04T22:30:16.190Z,23.37
2023-03-04T22:32:44.257Z,23.40
2023-03-04T22:35:12.998Z,23.42
2023-03-04T22:37:40.377Z,23.34
2023-03-04T22:40:11.103Z,23.33
2023-03-04T22:42:38.708Z,23.35
2023-03-04T22:45:07.027Z,23.29
2023-03-04T22:47:34.277Z,23.29
2023-03-04T22:50:01.429Z,23.23
2023-03-04T22:52:29.852Z,23.25
2023-03-04T22:54:56.969Z,23.17
2023-03-04T22:57:24.216Z,23.19
2023-03-04T22:59:51.300Z,23.15
2023-03-04T23:02:18.470Z,23.14
2023-03-04T23:04:45.602Z,23.09
2023-03-04T23:07:12.693Z,23.05
2023-03-04T23:09:41.387Z,23.03
2023-03-04T23:12:09.298Z,23.09
2023-03-04T23:14:36.843Z,23.06
2023-03-04T23:17:04.006Z,23.07
2023-03-04T23:19:31.159Z,23.07
2023-03-04T23:21:58.236Z,23.09
2023-03-04T23:24:25.374Z,23.11
2023-03-04T23:26:53.886Z,23.10
2023-03-04T23:29:21.122Z,23.11
2023-03-04T23:31:48.195Z,23.07
2023-03-04T23:34:15.296Z,23.06
2023-03-04T23:36:42.429Z,23.05
2023-03-04T23:39:11.904Z,22.98
2023-03-04T23:41:39.294Z,23.04
2023-03-04T23:44:09.754Z,23.06
2023-03-04T23:46:37.269Z,23.00
2023-03-04T23:49:04.445Z,23.00
2023-03-04T23:51:31.530Z,22.95
2023-03-04T23:53:59.650Z,22.84
2023-03-04T23:56:28.406Z,22.90
2023-03-04T23:58:56.290Z,22.89
